Airfield :
LOGIN :

Register | Disclaimer

   EN    FR    IT 

 










Legend :    VFR   Marginal VFR   IFR   Intensive IFR   Very Intensive IFR
Visi :
Ceiling :
>= 8 km
>= 3000ft
5 to 8 km
1000 to 3000 ft
1500m to 5 km
500 to 1000 ft
800 to 1500m
200 to 500 ft
< 800m
< 200 ft
Symbols :   Thunderstorms  Fog  Heavy snow  Heavy precipitations  Wind > 20 kt
SIGMETs :     Misc.  Thunderstorms  Icing  Turbulence  Mountain Waves  Volcanic Ashes






- Airport Elevation : 32 ft
- IATA code : LKZ


EGUL - RAF Lakenheath

CURRENT METAR :
  • 101156Z AUTO 13008KT 9999 CLR 20/08 A3027 RMK AO2 SLP254 T02000080 10200 20077 57012 $

EXPIRED METARs :
  • 101056Z AUTO 11010KT 9999 CLR 19/09 A3028 RMK AO2 SLP257 T01880087 $
  • 100956Z AUTO 13008G15KT 9999 CLR 17/08 A3029 RMK AO2 SLP261 T01670084 $

TAF AMD TAF EGUL
Valid from the 09 at 15:00 until the 10 at 20:00 UTC


091554Z 0915/1020 09010G15KT 9999 SCT060 QNH3026INS
BECMG 0918/0919 09009KT 9999 FEW080 QNH3030INS
BECMG 1009/1010 14012G20KT 9999 SCT050 QNH3024INS
BECMG 1015/1016 14010G15KT 9999 FEW050 QNH3023INS TX21/0916Z TN08/1001Z LAST NO AMDS AFT 0916 NEXT 1406



MET'MAP, your aeronautical weather chart ! - Copyright ORBIFLY December 2007 - Disclaimer

ORBIFLY MET'MAP TEAM :

Programming & Development : Alexandra Zaïnal
Concept & original design : Baudouin d'Aumeries
Assistance for programming : Marc-Olivier Méhu
Technical & hardware support : Manuel Goepfert

Contact : metmap@orbifly.com




SOURCES & CREDITS :

   NOAA